sensor_id;sensor_type;location;lat;lon;timestamp;P1;durP1;ratioP1;P2;durP2;ratioP2
70967;SDS011;58629;48.808;8.820;2022-11-20T00:01:31;2.30;;;1.20;;
70967;SDS011;58629;48.808;8.820;2022-11-20T00:03:57;3.27;;;1.40;;
70967;SDS011;58629;48.808;8.820;2022-11-20T00:06:23;1.88;;;1.23;;
70967;SDS011;58629;48.808;8.820;2022-11-20T00:08:50;2.28;;;1.30;;
70967;SDS011;58629;48.808;8.820;2022-11-20T00:11:16;3.63;;;1.90;;
70967;SDS011;58629;48.808;8.820;2022-11-20T00:13:46;3.13;;;1.90;;
70967;SDS011;58629;48.808;8.820;2022-11-20T00:16:14;3.22;;;1.65;;
70967;SDS011;58629;48.808;8.820;2022-11-20T00:18:41;3.55;;;1.80;;
70967;SDS011;58629;48.808;8.820;2022-11-20T00:21:11;2.83;;;1.85;;
70967;SDS011;58629;48.808;8.820;2022-11-20T00:23:38;4.55;;;1.65;;
70967;SDS011;58629;48.808;8.820;2022-11-20T00:26:04;2.93;;;1.50;;
70967;SDS011;58629;48.808;8.820;2022-11-20T00:28:30;4.72;;;1.40;;
70967;SDS011;58629;48.808;8.820;2022-11-20T00:31:03;3.47;;;1.30;;
70967;SDS011;58629;48.808;8.820;2022-11-20T00:33:33;2.00;;;1.20;;
70967;SDS011;58629;48.808;8.820;2022-11-20T00:36:09;2.40;;;1.30;;
70967;SDS011;58629;48.808;8.820;2022-11-20T00:38:35;1.83;;;1.10;;
70967;SDS011;58629;48.808;8.820;2022-11-20T00:41:02;1.90;;;1.20;;
70967;SDS011;58629;48.808;8.820;2022-11-20T00:43:30;2.08;;;1.30;;
70967;SDS011;58629;48.808;8.820;2022-11-20T00:45:59;3.53;;;1.37;;
70967;SDS011;58629;48.808;8.820;2022-11-20T00:48:25;2.28;;;1.10;;
70967;SDS011;58629;48.808;8.820;2022-11-20T00:50:51;3.35;;;1.60;;
70967;SDS011;58629;48.808;8.820;2022-11-20T00:53:17;2.53;;;1.40;;
70967;SDS011;58629;48.808;8.820;2022-11-20T00:55:42;2.13;;;1.30;;
70967;SDS011;58629;48.808;8.820;2022-11-20T00:58:08;3.35;;;1.17;;
70967;SDS011;58629;48.808;8.820;2022-11-20T01:00:33;1.90;;;1.33;;
70967;SDS011;58629;48.808;8.820;2022-11-20T01:02:59;1.90;;;1.15;;
70967;SDS011;58629;48.808;8.820;2022-11-20T01:05:24;3.37;;;1.50;;
70967;SDS011;58629;48.808;8.820;2022-11-20T01:07:49;2.47;;;1.20;;
70967;SDS011;58629;48.808;8.820;2022-11-20T01:10:14;2.30;;;1.20;;
70967;SDS011;58629;48.808;8.820;2022-11-20T01:12:40;1.77;;;1.10;;
70967;SDS011;58629;48.808;8.820;2022-11-20T01:15:05;1.63;;;1.13;;
70967;SDS011;58629;48.808;8.820;2022-11-20T01:17:31;1.88;;;1.10;;
70967;SDS011;58629;48.808;8.820;2022-11-20T01:19:56;1.53;;;1.00;;
70967;SDS011;58629;48.808;8.820;2022-11-20T01:22:22;2.30;;;1.30;;
70967;SDS011;58629;48.808;8.820;2022-11-20T01:24:47;1.92;;;1.10;;
70967;SDS011;58629;48.808;8.820;2022-11-20T01:27:13;1.67;;;0.90;;
70967;SDS011;58629;48.808;8.820;2022-11-20T01:29:38;1.20;;;0.80;;
70967;SDS011;58629;48.808;8.820;2022-11-20T01:32:03;1.80;;;0.90;;
70967;SDS011;58629;48.808;8.820;2022-11-20T01:34:29;2.50;;;1.30;;
70967;SDS011;58629;48.808;8.820;2022-11-20T01:36:54;2.10;;;1.30;;
70967;SDS011;58629;48.808;8.820;2022-11-20T01:39:20;4.03;;;1.00;;
70967;SDS011;58629;48.808;8.820;2022-11-20T01:41:48;1.45;;;1.00;;
70967;SDS011;58629;48.808;8.820;2022-11-20T01:44:48;2.00;;;1.00;;
70967;SDS011;58629;48.808;8.820;2022-11-20T01:47:31;1.55;;;0.93;;
70967;SDS011;58629;48.808;8.820;2022-11-20T01:50:14;1.53;;;1.03;;
70967;SDS011;58629;48.808;8.820;2022-11-20T01:52:48;1.85;;;1.00;;
70967;SDS011;58629;48.808;8.820;2022-11-20T01:55:21;1.40;;;0.90;;
70967;SDS011;58629;48.808;8.820;2022-11-20T01:57:50;2.05;;;1.20;;
70967;SDS011;58629;48.808;8.820;2022-11-20T02:00:17;2.20;;;1.30;;
70967;SDS011;58629;48.808;8.820;2022-11-20T02:02:46;1.75;;;1.00;;
70967;SDS011;58629;48.808;8.820;2022-11-20T02:07:48;2.05;;;1.17;;
70967;SDS011;58629;48.808;8.820;2022-11-20T02:10:14;2.17;;;1.10;;
70967;SDS011;58629;48.808;8.820;2022-11-20T02:12:39;2.42;;;1.55;;
70967;SDS011;58629;48.808;8.820;2022-11-20T02:15:23;2.30;;;1.10;;
70967;SDS011;58629;48.808;8.820;2022-11-20T02:17:48;1.57;;;0.97;;
70967;SDS011;58629;48.808;8.820;2022-11-20T02:20:13;1.47;;;0.97;;
70967;SDS011;58629;48.808;8.820;2022-11-20T02:22:42;1.85;;;0.73;;
70967;SDS011;58629;48.808;8.820;2022-11-20T02:25:15;1.60;;;0.90;;
70967;SDS011;58629;48.808;8.820;2022-11-20T02:27:42;1.67;;;0.97;;
70967;SDS011;58629;48.808;8.820;2022-11-20T02:30:08;1.92;;;1.00;;
70967;SDS011;58629;48.808;8.820;2022-11-20T02:32:36;1.70;;;1.15;;
70967;SDS011;58629;48.808;8.820;2022-11-20T02:35:09;2.30;;;1.20;;
70967;SDS011;58629;48.808;8.820;2022-11-20T02:37:56;2.85;;;1.30;;
70967;SDS011;58629;48.808;8.820;2022-11-20T02:40:24;1.90;;;1.20;;
70967;SDS011;58629;48.808;8.820;2022-11-20T02:42:52;3.17;;;1.17;;
70967;SDS011;58629;48.808;8.820;2022-11-20T02:45:21;2.00;;;1.00;;
70967;SDS011;58629;48.808;8.820;2022-11-20T02:47:48;1.75;;;1.20;;
70967;SDS011;58629;48.808;8.820;2022-11-20T02:50:13;1.30;;;0.90;;
70967;SDS011;58629;48.808;8.820;2022-11-20T02:52:38;1.70;;;0.90;;
70967;SDS011;58629;48.808;8.820;2022-11-20T02:55:04;1.70;;;1.03;;
70967;SDS011;58629;48.808;8.820;2022-11-20T02:57:29;2.00;;;1.20;;
70967;SDS011;58629;48.808;8.820;2022-11-20T02:59:55;1.80;;;1.10;;
70967;SDS011;58629;48.808;8.820;2022-11-20T03:02:20;1.93;;;1.00;;
70967;SDS011;58629;48.808;8.820;2022-11-20T03:04:46;2.40;;;1.30;;
70967;SDS011;58629;48.808;8.820;2022-11-20T03:07:11;1.80;;;1.10;;
70967;SDS011;58629;48.808;8.820;2022-11-20T03:09:36;1.88;;;1.10;;
70967;SDS011;58629;48.808;8.820;2022-11-20T03:12:01;1.80;;;1.30;;
70967;SDS011;58629;48.808;8.820;2022-11-20T03:14:27;2.07;;;1.23;;
70967;SDS011;58629;48.808;8.820;2022-11-20T03:16:52;2.10;;;1.20;;
70967;SDS011;58629;48.808;8.820;2022-11-20T03:19:17;1.80;;;1.00;;
70967;SDS011;58629;48.808;8.820;2022-11-20T03:21:43;1.60;;;1.00;;
70967;SDS011;58629;48.808;8.820;2022-11-20T03:24:08;1.93;;;0.93;;
70967;SDS011;58629;48.808;8.820;2022-11-20T03:26:33;1.93;;;0.90;;
70967;SDS011;58629;48.808;8.820;2022-11-20T03:28:59;2.40;;;1.30;;
70967;SDS011;58629;48.808;8.820;2022-11-20T03:31:27;1.95;;;1.33;;
70967;SDS011;58629;48.808;8.820;2022-11-20T03:33:56;2.03;;;1.25;;
70967;SDS011;58629;48.808;8.820;2022-11-20T03:36:22;2.50;;;1.60;;
70967;SDS011;58629;48.808;8.820;2022-11-20T03:38:48;2.23;;;1.30;;
70967;SDS011;58629;48.808;8.820;2022-11-20T03:41:14;1.80;;;1.30;;
70967;SDS011;58629;48.808;8.820;2022-11-20T03:43:46;1.90;;;1.23;;
70967;SDS011;58629;48.808;8.820;2022-11-20T03:46:15;2.45;;;1.60;;
70967;SDS011;58629;48.808;8.820;2022-11-20T03:48:40;3.07;;;1.40;;
70967;SDS011;58629;48.808;8.820;2022-11-20T03:51:06;2.13;;;1.20;;
70967;SDS011;58629;48.808;8.820;2022-11-20T03:53:40;2.47;;;1.20;;
70967;SDS011;58629;48.808;8.820;2022-11-20T03:56:07;1.67;;;1.08;;
70967;SDS011;58629;48.808;8.820;2022-11-20T03:58:34;2.33;;;1.40;;
70967;SDS011;58629;48.808;8.820;2022-11-20T04:01:08;2.40;;;1.47;;
70967;SDS011;58629;48.808;8.820;2022-11-20T04:03:34;1.90;;;1.30;;
70967;SDS011;58629;48.808;8.820;2022-11-20T04:06:07;2.75;;;1.58;;
70967;SDS011;58629;48.808;8.820;2022-11-20T04:08:34;2.78;;;1.45;;
70967;SDS011;58629;48.808;8.820;2022-11-20T04:11:10;2.60;;;1.43;;
70967;SDS011;58629;48.808;8.820;2022-11-20T04:13:37;2.30;;;1.38;;
70967;SDS011;58629;48.808;8.820;2022-11-20T04:16:03;3.93;;;1.60;;
70967;SDS011;58629;48.808;8.820;2022-11-20T04:18:29;2.15;;;1.38;;
70967;SDS011;58629;48.808;8.820;2022-11-20T04:20:56;1.83;;;1.10;;
70967;SDS011;58629;48.808;8.820;2022-11-20T04:23:22;2.80;;;1.73;;
70967;SDS011;58629;48.808;8.820;2022-11-20T04:25:47;3.07;;;1.60;;
70967;SDS011;58629;48.808;8.820;2022-11-20T04:28:12;3.93;;;1.90;;
70967;SDS011;58629;48.808;8.820;2022-11-20T04:30:37;2.97;;;1.40;;
70967;SDS011;58629;48.808;8.820;2022-11-20T04:33:03;2.20;;;1.30;;
70967;SDS011;58629;48.808;8.820;2022-11-20T04:35:28;2.00;;;1.13;;
70967;SDS011;58629;48.808;8.820;2022-11-20T04:37:53;2.37;;;1.30;;
70967;SDS011;58629;48.808;8.820;2022-11-20T04:40:18;2.67;;;1.20;;
70967;SDS011;58629;48.808;8.820;2022-11-20T04:42:44;2.07;;;1.30;;
70967;SDS011;58629;48.808;8.820;2022-11-20T04:45:09;3.43;;;1.70;;
70967;SDS011;58629;48.808;8.820;2022-11-20T04:47:34;2.20;;;1.07;;
70967;SDS011;58629;48.808;8.820;2022-11-20T04:50:00;2.43;;;1.30;;
70967;SDS011;58629;48.808;8.820;2022-11-20T04:52:25;2.23;;;1.60;;
70967;SDS011;58629;48.808;8.820;2022-11-20T04:54:50;2.20;;;1.20;;
70967;SDS011;58629;48.808;8.820;2022-11-20T04:57:17;1.75;;;0.98;;
70967;SDS011;58629;48.808;8.820;2022-11-20T04:59:43;4.05;;;1.23;;
70967;SDS011;58629;48.808;8.820;2022-11-20T05:02:08;2.70;;;1.10;;
70967;SDS011;58629;48.808;8.820;2022-11-20T05:04:34;1.83;;;1.10;;
70967;SDS011;58629;48.808;8.820;2022-11-20T05:06:59;1.43;;;0.90;;
70967;SDS011;58629;48.808;8.820;2022-11-20T05:09:25;3.20;;;0.90;;
70967;SDS011;58629;48.808;8.820;2022-11-20T05:11:50;1.50;;;1.17;;
70967;SDS011;58629;48.808;8.820;2022-11-20T05:14:15;1.10;;;0.80;;
70967;SDS011;58629;48.808;8.820;2022-11-20T05:16:41;1.47;;;0.87;;
70967;SDS011;58629;48.808;8.820;2022-11-20T05:19:06;1.90;;;1.17;;
70967;SDS011;58629;48.808;8.820;2022-11-20T05:21:31;2.37;;;1.33;;
70967;SDS011;58629;48.808;8.820;2022-11-20T05:23:57;2.10;;;0.90;;
70967;SDS011;58629;48.808;8.820;2022-11-20T05:26:23;1.80;;;1.00;;
70967;SDS011;58629;48.808;8.820;2022-11-20T05:28:48;1.50;;;0.80;;
70967;SDS011;58629;48.808;8.820;2022-11-20T05:31:15;1.33;;;0.93;;
70967;SDS011;58629;48.808;8.820;2022-11-20T05:33:43;1.57;;;0.87;;
70967;SDS011;58629;48.808;8.820;2022-11-20T05:36:09;1.58;;;0.90;;
70967;SDS011;58629;48.808;8.820;2022-11-20T05:38:36;1.95;;;0.73;;
70967;SDS011;58629;48.808;8.820;2022-11-20T05:41:03;1.00;;;0.80;;
70967;SDS011;58629;48.808;8.820;2022-11-20T05:43:32;1.10;;;0.60;;
70967;SDS011;58629;48.808;8.820;2022-11-20T05:45:59;1.20;;;0.73;;
70967;SDS011;58629;48.808;8.820;2022-11-20T05:48:25;1.00;;;0.60;;
70967;SDS011;58629;48.808;8.820;2022-11-20T05:50:50;1.20;;;0.60;;
70967;SDS011;58629;48.808;8.820;2022-11-20T05:53:15;0.90;;;0.50;;
70967;SDS011;58629;48.808;8.820;2022-11-20T05:55:41;0.80;;;0.50;;
70967;SDS011;58629;48.808;8.820;2022-11-20T05:58:06;0.50;;;0.40;;
70967;SDS011;58629;48.808;8.820;2022-11-20T06:00:31;1.33;;;0.60;;
70967;SDS011;58629;48.808;8.820;2022-11-20T06:02:56;0.90;;;0.47;;
70967;SDS011;58629;48.808;8.820;2022-11-20T06:05:22;0.90;;;0.60;;
70967;SDS011;58629;48.808;8.820;2022-11-20T06:07:47;0.60;;;0.40;;
70967;SDS011;58629;48.808;8.820;2022-11-20T06:10:12;0.60;;;0.40;;
70967;SDS011;58629;48.808;8.820;2022-11-20T06:12:38;0.50;;;0.30;;
70967;SDS011;58629;48.808;8.820;2022-11-20T06:15:03;0.60;;;0.45;;
70967;SDS011;58629;48.808;8.820;2022-11-20T06:17:29;0.90;;;0.53;;
70967;SDS011;58629;48.808;8.820;2022-11-20T06:19:55;0.60;;;0.38;;
70967;SDS011;58629;48.808;8.820;2022-11-20T06:22:20;1.00;;;0.70;;
70967;SDS011;58629;48.808;8.820;2022-11-20T06:24:45;0.82;;;0.60;;
70967;SDS011;58629;48.808;8.820;2022-11-20T06:27:10;1.00;;;0.40;;
70967;SDS011;58629;48.808;8.820;2022-11-20T06:29:36;0.80;;;0.60;;
70967;SDS011;58629;48.808;8.820;2022-11-20T06:32:01;0.60;;;0.40;;
70967;SDS011;58629;48.808;8.820;2022-11-20T06:34:26;0.73;;;0.40;;
70967;SDS011;58629;48.808;8.820;2022-11-20T06:36:52;1.07;;;0.53;;
70967;SDS011;58629;48.808;8.820;2022-11-20T06:39:17;1.60;;;0.50;;
70967;SDS011;58629;48.808;8.820;2022-11-20T06:41:42;0.77;;;0.40;;
70967;SDS011;58629;48.808;8.820;2022-11-20T06:44:07;0.67;;;0.43;;
70967;SDS011;58629;48.808;8.820;2022-11-20T06:46:33;0.50;;;0.40;;
70967;SDS011;58629;48.808;8.820;2022-11-20T06:48:58;0.97;;;0.60;;
70967;SDS011;58629;48.808;8.820;2022-11-20T06:51:23;0.90;;;0.50;;
70967;SDS011;58629;48.808;8.820;2022-11-20T06:53:49;0.83;;;0.70;;
70967;SDS011;58629;48.808;8.820;2022-11-20T06:56:14;0.67;;;0.60;;
70967;SDS011;58629;48.808;8.820;2022-11-20T06:58:42;1.97;;;0.70;;
70967;SDS011;58629;48.808;8.820;2022-11-20T07:01:11;0.90;;;0.70;;
70967;SDS011;58629;48.808;8.820;2022-11-20T07:03:38;0.85;;;0.60;;
70967;SDS011;58629;48.808;8.820;2022-11-20T07:06:04;1.10;;;0.60;;
70967;SDS011;58629;48.808;8.820;2022-11-20T07:08:30;1.05;;;0.57;;
70967;SDS011;58629;48.808;8.820;2022-11-20T07:10:59;1.97;;;1.10;;
70967;SDS011;58629;48.808;8.820;2022-11-20T07:13:26;1.88;;;1.00;;
70967;SDS011;58629;48.808;8.820;2022-11-20T07:15:52;1.23;;;0.80;;
70967;SDS011;58629;48.808;8.820;2022-11-20T07:18:17;1.00;;;0.60;;
70967;SDS011;58629;48.808;8.820;2022-11-20T07:20:43;1.23;;;0.70;;
70967;SDS011;58629;48.808;8.820;2022-11-20T07:23:08;1.03;;;0.70;;
70967;SDS011;58629;48.808;8.820;2022-11-20T07:25:33;1.00;;;0.60;;
70967;SDS011;58629;48.808;8.820;2022-11-20T07:27:59;1.60;;;0.57;;
70967;SDS011;58629;48.808;8.820;2022-11-20T07:30:26;0.85;;;0.45;;
70967;SDS011;58629;48.808;8.820;2022-11-20T07:32:53;1.00;;;0.60;;
70967;SDS011;58629;48.808;8.820;2022-11-20T07:35:20;0.60;;;0.50;;
70967;SDS011;58629;48.808;8.820;2022-11-20T07:37:46;0.63;;;0.43;;
70967;SDS011;58629;48.808;8.820;2022-11-20T07:40:12;1.48;;;0.60;;
70967;SDS011;58629;48.808;8.820;2022-11-20T07:42:38;1.50;;;0.50;;
70967;SDS011;58629;48.808;8.820;2022-11-20T07:45:03;0.95;;;0.50;;
70967;SDS011;58629;48.808;8.820;2022-11-20T07:47:34;1.42;;;0.40;;
70967;SDS011;58629;48.808;8.820;2022-11-20T07:50:00;0.73;;;0.45;;
70967;SDS011;58629;48.808;8.820;2022-11-20T07:52:25;0.67;;;0.30;;
70967;SDS011;58629;48.808;8.820;2022-11-20T07:54:50;1.03;;;0.40;;
70967;SDS011;58629;48.808;8.820;2022-11-20T07:57:15;0.87;;;0.53;;
70967;SDS011;58629;48.808;8.820;2022-11-20T07:59:41;0.60;;;0.40;;
70967;SDS011;58629;48.808;8.820;2022-11-20T08:02:09;0.50;;;0.30;;
70967;SDS011;58629;48.808;8.820;2022-11-20T08:04:35;0.65;;;0.40;;
70967;SDS011;58629;48.808;8.820;2022-11-20T08:07:00;0.23;;;0.20;;
70967;SDS011;58629;48.808;8.820;2022-11-20T08:09:25;0.57;;;0.30;;
70967;SDS011;58629;48.808;8.820;2022-11-20T08:11:51;0.40;;;0.30;;
70967;SDS011;58629;48.808;8.820;2022-11-20T08:14:34;0.60;;;0.30;;
70967;SDS011;58629;48.808;8.820;2022-11-20T08:17:00;0.80;;;0.33;;
70967;SDS011;58629;48.808;8.820;2022-11-20T08:19:25;1.23;;;0.40;;
70967;SDS011;58629;48.808;8.820;2022-11-20T08:21:50;1.08;;;0.32;;
70967;SDS011;58629;48.808;8.820;2022-11-20T08:24:15;1.40;;;0.40;;
70967;SDS011;58629;48.808;8.820;2022-11-20T08:26:41;1.48;;;0.40;;
70967;SDS011;58629;48.808;8.820;2022-11-20T08:29:06;0.80;;;0.30;;
70967;SDS011;58629;48.808;8.820;2022-11-20T08:31:32;0.97;;;0.30;;
70967;SDS011;58629;48.808;8.820;2022-11-20T08:33:58;0.82;;;0.35;;
70967;SDS011;58629;48.808;8.820;2022-11-20T08:36:23;0.50;;;0.40;;
70967;SDS011;58629;48.808;8.820;2022-11-20T08:38:49;0.63;;;0.30;;
70967;SDS011;58629;48.808;8.820;2022-11-20T08:41:18;0.50;;;0.30;;
70967;SDS011;58629;48.808;8.820;2022-11-20T08:44:00;0.32;;;0.20;;
70967;SDS011;58629;48.808;8.820;2022-11-20T08:46:28;0.80;;;0.30;;
70967;SDS011;58629;48.808;8.820;2022-11-20T08:48:58;1.55;;;0.47;;
70967;SDS011;58629;48.808;8.820;2022-11-20T08:51:23;0.80;;;0.53;;
70967;SDS011;58629;48.808;8.820;2022-11-20T08:53:48;0.70;;;0.50;;
70967;SDS011;58629;48.808;8.820;2022-11-20T08:56:14;0.60;;;0.40;;
70967;SDS011;58629;48.808;8.820;2022-11-20T08:58:39;1.90;;;0.47;;
70967;SDS011;58629;48.808;8.820;2022-11-20T09:01:05;0.80;;;0.50;;
70967;SDS011;58629;48.808;8.820;2022-11-20T09:03:31;0.63;;;0.50;;
70967;SDS011;58629;48.808;8.820;2022-11-20T09:05:59;3.70;;;0.70;;
70967;SDS011;58629;48.808;8.820;2022-11-20T09:08:26;1.63;;;0.40;;
70967;SDS011;58629;48.808;8.820;2022-11-20T09:10:53;0.60;;;0.40;;
70967;SDS011;58629;48.808;8.820;2022-11-20T09:13:20;0.70;;;0.40;;
70967;SDS011;58629;48.808;8.820;2022-11-20T09:15:46;0.98;;;0.40;;
70967;SDS011;58629;48.808;8.820;2022-11-20T09:18:12;0.95;;;0.70;;
70967;SDS011;58629;48.808;8.820;2022-11-20T09:20:38;1.67;;;0.70;;
70967;SDS011;58629;48.808;8.820;2022-11-20T09:23:03;1.30;;;0.65;;
70967;SDS011;58629;48.808;8.820;2022-11-20T09:25:29;1.35;;;0.88;;
70967;SDS011;58629;48.808;8.820;2022-11-20T09:27:58;1.23;;;0.73;;
70967;SDS011;58629;48.808;8.820;2022-11-20T09:30:24;1.42;;;0.90;;
70967;SDS011;58629;48.808;8.820;2022-11-20T09:32:49;1.80;;;1.13;;
70967;SDS011;58629;48.808;8.820;2022-11-20T09:35:15;1.67;;;0.93;;
70967;SDS011;58629;48.808;8.820;2022-11-20T09:37:40;3.90;;;1.40;;
70967;SDS011;58629;48.808;8.820;2022-11-20T09:40:06;1.90;;;1.20;;
70967;SDS011;58629;48.808;8.820;2022-11-20T09:42:45;1.65;;;1.35;;
70967;SDS011;58629;48.808;8.820;2022-11-20T09:45:27;3.10;;;1.52;;
70967;SDS011;58629;48.808;8.820;2022-11-20T09:53:35;2.22;;;1.27;;
70967;SDS011;58629;48.808;8.820;2022-11-20T09:56:22;2.40;;;1.13;;
70967;SDS011;58629;48.808;8.820;2022-11-20T09:58:51;2.23;;;1.00;;
70967;SDS011;58629;48.808;8.820;2022-11-20T10:01:20;1.52;;;0.80;;
70967;SDS011;58629;48.808;8.820;2022-11-20T10:06:15;1.73;;;0.80;;
70967;SDS011;58629;48.808;8.820;2022-11-20T10:08:45;1.15;;;0.88;;
70967;SDS011;58629;48.808;8.820;2022-11-20T10:11:20;1.43;;;0.80;;
70967;SDS011;58629;48.808;8.820;2022-11-20T10:30:20;1.60;;;1.00;;
70967;SDS011;58629;48.808;8.820;2022-11-20T10:32:58;1.75;;;1.00;;
70967;SDS011;58629;48.808;8.820;2022-11-20T10:38:18;2.67;;;1.53;;
70967;SDS011;58629;48.808;8.820;2022-11-20T10:41:05;2.88;;;1.50;;
70967;SDS011;58629;48.808;8.820;2022-11-20T10:43:52;3.05;;;1.70;;
70967;SDS011;58629;48.808;8.820;2022-11-20T10:46:40;2.60;;;1.60;;
70967;SDS011;58629;48.808;8.820;2022-11-20T10:49:17;3.95;;;1.55;;
70967;SDS011;58629;48.808;8.820;2022-11-20T10:52:00;3.07;;;1.60;;
70967;SDS011;58629;48.808;8.820;2022-11-20T10:57:20;5.30;;;1.90;;
70967;SDS011;58629;48.808;8.820;2022-11-20T11:00:06;3.45;;;1.80;;
70967;SDS011;58629;48.808;8.820;2022-11-20T11:07:56;2.53;;;1.70;;
70967;SDS011;58629;48.808;8.820;2022-11-20T11:13:20;2.25;;;1.17;;
70967;SDS011;58629;48.808;8.820;2022-11-20T11:15:45;1.80;;;1.25;;
70967;SDS011;58629;48.808;8.820;2022-11-20T11:18:11;2.30;;;1.13;;
70967;SDS011;58629;48.808;8.820;2022-11-20T11:20:36;3.70;;;1.40;;
70967;SDS011;58629;48.808;8.820;2022-11-20T11:23:02;3.20;;;1.30;;
70967;SDS011;58629;48.808;8.820;2022-11-20T11:25:33;2.35;;;1.30;;
70967;SDS011;58629;48.808;8.820;2022-11-20T11:28:20;3.47;;;1.10;;
70967;SDS011;58629;48.808;8.820;2022-11-20T11:30:47;2.10;;;1.17;;
70967;SDS011;58629;48.808;8.820;2022-11-20T11:33:21;3.72;;;1.30;;
70967;SDS011;58629;48.808;8.820;2022-11-20T11:36:01;2.05;;;1.30;;
70967;SDS011;58629;48.808;8.820;2022-11-20T11:40:57;1.70;;;1.10;;
70967;SDS011;58629;48.808;8.820;2022-11-20T11:43:23;2.42;;;1.00;;
70967;SDS011;58629;48.808;8.820;2022-11-20T11:54:20;1.17;;;0.73;;
70967;SDS011;58629;48.808;8.820;2022-11-20T11:56:49;2.50;;;1.08;;
70967;SDS011;58629;48.808;8.820;2022-11-20T11:59:30;2.13;;;0.87;;
70967;SDS011;58629;48.808;8.820;2022-11-20T12:02:11;2.72;;;1.30;;
70967;SDS011;58629;48.808;8.820;2022-11-20T12:04:52;3.40;;;0.88;;
70967;SDS011;58629;48.808;8.820;2022-11-20T12:07:27;2.40;;;0.75;;
70967;SDS011;58629;48.808;8.820;2022-11-20T12:10:03;1.42;;;0.88;;
70967;SDS011;58629;48.808;8.820;2022-11-20T12:12:43;2.70;;;0.93;;
70967;SDS011;58629;48.808;8.820;2022-11-20T12:15:12;2.35;;;0.88;;
70967;SDS011;58629;48.808;8.820;2022-11-20T12:17:40;1.85;;;0.90;;
70967;SDS011;58629;48.808;8.820;2022-11-20T12:20:13;1.53;;;0.80;;
70967;SDS011;58629;48.808;8.820;2022-11-20T12:25:33;2.40;;;0.80;;
70967;SDS011;58629;48.808;8.820;2022-11-20T12:28:24;1.80;;;0.70;;
70967;SDS011;58629;48.808;8.820;2022-11-20T12:31:07;2.00;;;0.80;;
70967;SDS011;58629;48.808;8.820;2022-11-20T12:33:48;1.00;;;0.60;;
70967;SDS011;58629;48.808;8.820;2022-11-20T12:41:48;3.53;;;0.60;;
70967;SDS011;58629;48.808;8.820;2022-11-20T12:53:33;3.45;;;0.63;;
70967;SDS011;58629;48.808;8.820;2022-11-20T12:56:22;2.43;;;0.50;;
70967;SDS011;58629;48.808;8.820;2022-11-20T13:01:53;1.33;;;0.50;;
70967;SDS011;58629;48.808;8.820;2022-11-20T13:07:02;1.38;;;0.43;;
70967;SDS011;58629;48.808;8.820;2022-11-20T13:09:30;1.60;;;0.60;;
70967;SDS011;58629;48.808;8.820;2022-11-20T13:12:42;1.00;;;0.50;;
70967;SDS011;58629;48.808;8.820;2022-11-20T13:20:19;1.60;;;0.60;;
70967;SDS011;58629;48.808;8.820;2022-11-20T13:22:46;1.53;;;0.70;;
70967;SDS011;58629;48.808;8.820;2022-11-20T13:28:27;2.63;;;0.52;;
70967;SDS011;58629;48.808;8.820;2022-11-20T13:30:51;1.23;;;0.50;;
70967;SDS011;58629;48.808;8.820;2022-11-20T13:33:31;1.67;;;1.00;;
70967;SDS011;58629;48.808;8.820;2022-11-20T13:38:50;0.82;;;0.50;;
70967;SDS011;58629;48.808;8.820;2022-11-20T13:41:24;1.20;;;0.52;;
70967;SDS011;58629;48.808;8.820;2022-11-20T13:44:15;0.85;;;0.50;;
70967;SDS011;58629;48.808;8.820;2022-11-20T13:46:50;2.47;;;0.68;;
70967;SDS011;58629;48.808;8.820;2022-11-20T13:49:17;2.13;;;0.60;;
70967;SDS011;58629;48.808;8.820;2022-11-20T13:51:46;2.42;;;1.00;;
70967;SDS011;58629;48.808;8.820;2022-11-20T13:54:25;2.73;;;0.50;;
70967;SDS011;58629;48.808;8.820;2022-11-20T14:00:18;1.23;;;0.40;;
70967;SDS011;58629;48.808;8.820;2022-11-20T14:02:49;2.17;;;0.70;;
70967;SDS011;58629;48.808;8.820;2022-11-20T14:05:24;1.65;;;0.50;;
70967;SDS011;58629;48.808;8.820;2022-11-20T14:07:50;1.70;;;0.50;;
70967;SDS011;58629;48.808;8.820;2022-11-20T14:10:28;1.45;;;0.60;;
70967;SDS011;58629;48.808;8.820;2022-11-20T14:12:54;1.00;;;0.40;;
70967;SDS011;58629;48.808;8.820;2022-11-20T14:17:55;2.10;;;0.60;;
70967;SDS011;58629;48.808;8.820;2022-11-20T14:20:22;0.95;;;0.50;;
70967;SDS011;58629;48.808;8.820;2022-11-20T14:22:52;2.08;;;0.50;;
70967;SDS011;58629;48.808;8.820;2022-11-20T14:25:19;2.50;;;0.50;;
70967;SDS011;58629;48.808;8.820;2022-11-20T14:27:56;0.75;;;0.52;;
70967;SDS011;58629;48.808;8.820;2022-11-20T14:30:24;2.25;;;0.50;;
70967;SDS011;58629;48.808;8.820;2022-11-20T14:32:53;2.10;;;0.57;;
70967;SDS011;58629;48.808;8.820;2022-11-20T14:35:26;1.65;;;0.45;;
70967;SDS011;58629;48.808;8.820;2022-11-20T14:37:54;1.73;;;0.40;;
70967;SDS011;58629;48.808;8.820;2022-11-20T14:40:30;1.20;;;0.50;;
70967;SDS011;58629;48.808;8.820;2022-11-20T14:42:58;1.10;;;0.40;;
70967;SDS011;58629;48.808;8.820;2022-11-20T14:45:24;2.05;;;0.30;;
70967;SDS011;58629;48.808;8.820;2022-11-20T14:47:51;0.88;;;0.40;;
70967;SDS011;58629;48.808;8.820;2022-11-20T14:52:52;0.45;;;0.30;;
70967;SDS011;58629;48.808;8.820;2022-11-20T14:55:27;0.52;;;0.20;;
70967;SDS011;58629;48.808;8.820;2022-11-20T14:58:01;0.85;;;0.30;;
70967;SDS011;58629;48.808;8.820;2022-11-20T15:00:29;1.33;;;0.50;;
70967;SDS011;58629;48.808;8.820;2022-11-20T15:02:55;1.90;;;0.40;;
70967;SDS011;58629;48.808;8.820;2022-11-20T15:05:22;0.70;;;0.30;;
70967;SDS011;58629;48.808;8.820;2022-11-20T15:07:51;0.52;;;0.30;;
70967;SDS011;58629;48.808;8.820;2022-11-20T15:10:29;1.58;;;0.40;;
70967;SDS011;58629;48.808;8.820;2022-11-20T15:12:56;1.07;;;0.20;;
70967;SDS011;58629;48.808;8.820;2022-11-20T15:15:45;0.95;;;0.50;;
70967;SDS011;58629;48.808;8.820;2022-11-20T15:18:13;1.00;;;0.40;;
70967;SDS011;58629;48.808;8.820;2022-11-20T15:20:41;1.60;;;0.30;;
70967;SDS011;58629;48.808;8.820;2022-11-20T15:23:09;1.10;;;0.30;;
70967;SDS011;58629;48.808;8.820;2022-11-20T15:25:37;1.15;;;0.30;;
70967;SDS011;58629;48.808;8.820;2022-11-20T15:28:04;0.35;;;0.10;;
70967;SDS011;58629;48.808;8.820;2022-11-20T15:30:37;0.28;;;0.10;;
70967;SDS011;58629;48.808;8.820;2022-11-20T15:33:02;0.40;;;0.20;;
70967;SDS011;58629;48.808;8.820;2022-11-20T15:35:27;0.20;;;0.10;;
70967;SDS011;58629;48.808;8.820;2022-11-20T15:37:52;0.43;;;0.23;;
70967;SDS011;58629;48.808;8.820;2022-11-20T15:40:18;1.33;;;0.50;;
70967;SDS011;58629;48.808;8.820;2022-11-20T15:42:43;1.47;;;0.60;;
70967;SDS011;58629;48.808;8.820;2022-11-20T15:45:27;1.50;;;0.60;;
70967;SDS011;58629;48.808;8.820;2022-11-20T15:47:56;3.45;;;0.75;;
70967;SDS011;58629;48.808;8.820;2022-11-20T15:50:22;0.85;;;0.40;;
70967;SDS011;58629;48.808;8.820;2022-11-20T15:52:52;0.88;;;0.50;;
70967;SDS011;58629;48.808;8.820;2022-11-20T15:55:17;1.40;;;0.53;;
70967;SDS011;58629;48.808;8.820;2022-11-20T15:57:42;0.97;;;0.37;;
70967;SDS011;58629;48.808;8.820;2022-11-20T16:00:08;0.97;;;0.50;;
70967;SDS011;58629;48.808;8.820;2022-11-20T16:02:34;0.90;;;0.40;;
70967;SDS011;58629;48.808;8.820;2022-11-20T16:04:59;0.80;;;0.50;;
70967;SDS011;58629;48.808;8.820;2022-11-20T16:07:24;1.20;;;0.50;;
70967;SDS011;58629;48.808;8.820;2022-11-20T16:09:49;1.47;;;0.80;;
70967;SDS011;58629;48.808;8.820;2022-11-20T16:12:14;2.17;;;0.67;;
70967;SDS011;58629;48.808;8.820;2022-11-20T16:15:00;1.40;;;0.80;;
70967;SDS011;58629;48.808;8.820;2022-11-20T16:17:48;1.65;;;0.80;;
70967;SDS011;58629;48.808;8.820;2022-11-20T16:20:13;1.30;;;0.70;;
70967;SDS011;58629;48.808;8.820;2022-11-20T16:22:39;1.37;;;0.40;;
70967;SDS011;58629;48.808;8.820;2022-11-20T16:25:04;1.47;;;0.60;;
70967;SDS011;58629;48.808;8.820;2022-11-20T16:27:30;1.58;;;0.63;;
70967;SDS011;58629;48.808;8.820;2022-11-20T16:29:55;1.08;;;0.70;;
70967;SDS011;58629;48.808;8.820;2022-11-20T16:32:20;1.35;;;0.60;;